sensor_id;sensor_type;location;lat;lon;timestamp;temperature;humidity
71237;DHT22;58984;51.960;5.582;2022-07-29T00:02:07;26.60;40.60
71237;DHT22;58984;51.960;5.582;2022-07-29T00:04:35;26.60;40.70
71237;DHT22;58984;51.960;5.582;2022-07-29T00:07:01;26.60;40.70
71237;DHT22;58984;51.960;5.582;2022-07-29T00:09:27;26.60;40.70
71237;DHT22;58984;51.960;5.582;2022-07-29T00:11:52;26.70;40.80
71237;DHT22;58984;51.960;5.582;2022-07-29T00:14:18;26.60;40.80
71237;DHT22;58984;51.960;5.582;2022-07-29T00:16:44;26.60;40.80
71237;DHT22;58984;51.960;5.582;2022-07-29T00:19:09;26.60;40.90
71237;DHT22;58984;51.960;5.582;2022-07-29T00:21:35;26.60;40.90
71237;DHT22;58984;51.960;5.582;2022-07-29T00:24:00;26.50;40.80
71237;DHT22;58984;51.960;5.582;2022-07-29T00:26:26;26.50;40.90
71237;DHT22;58984;51.960;5.582;2022-07-29T00:28:52;26.50;41.00
71237;DHT22;58984;51.960;5.582;2022-07-29T00:31:18;26.50;41.00
71237;DHT22;58984;51.960;5.582;2022-07-29T00:33:43;26.50;41.00
71237;DHT22;58984;51.960;5.582;2022-07-29T00:36:09;26.50;41.00
71237;DHT22;58984;51.960;5.582;2022-07-29T00:38:34;26.50;41.00
71237;DHT22;58984;51.960;5.582;2022-07-29T00:41:00;26.50;41.10
71237;DHT22;58984;51.960;5.582;2022-07-29T00:43:25;26.50;41.10
71237;DHT22;58984;51.960;5.582;2022-07-29T00:45:51;26.40;41.10
71237;DHT22;58984;51.960;5.582;2022-07-29T00:48:16;26.40;41.10
71237;DHT22;58984;51.960;5.582;2022-07-29T00:50:42;26.40;41.10
71237;DHT22;58984;51.960;5.582;2022-07-29T00:53:07;26.40;41.10
71237;DHT22;58984;51.960;5.582;2022-07-29T00:55:33;26.40;41.10
71237;DHT22;58984;51.960;5.582;2022-07-29T00:57:59;26.40;41.20
71237;DHT22;58984;51.960;5.582;2022-07-29T01:00:25;26.40;41.20
71237;DHT22;58984;51.960;5.582;2022-07-29T01:02:51;26.40;41.30
71237;DHT22;58984;51.960;5.582;2022-07-29T01:05:18;26.40;41.30
71237;DHT22;58984;51.960;5.582;2022-07-29T01:07:43;26.30;41.30
71237;DHT22;58984;51.960;5.582;2022-07-29T01:10:10;26.30;41.30
71237;DHT22;58984;51.960;5.582;2022-07-29T01:12:38;26.30;41.30
71237;DHT22;58984;51.960;5.582;2022-07-29T01:15:04;26.30;41.40
71237;DHT22;58984;51.960;5.582;2022-07-29T01:17:36;26.30;41.40
71237;DHT22;58984;51.960;5.582;2022-07-29T01:20:07;26.30;41.40
71237;DHT22;58984;51.960;5.582;2022-07-29T01:26:03;26.30;41.50
71237;DHT22;58984;51.960;5.582;2022-07-29T01:28:17;26.30;41.50
71237;DHT22;58984;51.960;5.582;2022-07-29T01:30:46;26.20;41.50
71237;DHT22;58984;51.960;5.582;2022-07-29T01:33:13;26.20;41.50
71237;DHT22;58984;51.960;5.582;2022-07-29T01:36:01;26.20;41.50
71237;DHT22;58984;51.960;5.582;2022-07-29T01:38:29;26.20;41.60
71237;DHT22;58984;51.960;5.582;2022-07-29T01:40:58;26.20;41.50
71237;DHT22;58984;51.960;5.582;2022-07-29T01:43:40;26.20;41.60
71237;DHT22;58984;51.960;5.582;2022-07-29T01:46:09;26.20;41.60
71237;DHT22;58984;51.960;5.582;2022-07-29T01:48:39;26.20;41.10
71237;DHT22;58984;51.960;5.582;2022-07-29T01:51:06;26.20;41.70
71237;DHT22;58984;51.960;5.582;2022-07-29T01:55:58;26.10;41.70
71237;DHT22;58984;51.960;5.582;2022-07-29T01:58:25;26.10;41.70
71237;DHT22;58984;51.960;5.582;2022-07-29T02:00:52;26.10;41.70
71237;DHT22;58984;51.960;5.582;2022-07-29T02:03:19;26.10;41.70
71237;DHT22;58984;51.960;5.582;2022-07-29T02:05:45;26.10;41.70
71237;DHT22;58984;51.960;5.582;2022-07-29T02:08:11;26.10;41.70
71237;DHT22;58984;51.960;5.582;2022-07-29T02:10:38;26.10;41.80
71237;DHT22;58984;51.960;5.582;2022-07-29T02:13:05;26.10;41.80
71237;DHT22;58984;51.960;5.582;2022-07-29T02:15:31;26.10;41.80
71237;DHT22;58984;51.960;5.582;2022-07-29T02:18:18;26.00;41.90
71237;DHT22;58984;51.960;5.582;2022-07-29T02:20:50;26.00;42.00
71237;DHT22;58984;51.960;5.582;2022-07-29T02:23:26;26.00;42.10
71237;DHT22;58984;51.960;5.582;2022-07-29T02:25:52;26.00;42.20
71237;DHT22;58984;51.960;5.582;2022-07-29T02:28:18;26.00;42.20
71237;DHT22;58984;51.960;5.582;2022-07-29T02:30:44;26.00;42.40
71237;DHT22;58984;51.960;5.582;2022-07-29T02:33:13;26.00;42.40
71237;DHT22;58984;51.960;5.582;2022-07-29T02:35:39;26.00;42.50
71237;DHT22;58984;51.960;5.582;2022-07-29T02:38:05;26.00;42.50
71237;DHT22;58984;51.960;5.582;2022-07-29T02:40:50;26.00;42.50
71237;DHT22;58984;51.960;5.582;2022-07-29T02:43:15;25.90;42.50
71237;DHT22;58984;51.960;5.582;2022-07-29T02:45:42;25.90;42.60
71237;DHT22;58984;51.960;5.582;2022-07-29T02:48:13;25.90;42.70
71237;DHT22;58984;51.960;5.582;2022-07-29T02:50:50;25.90;42.60
71237;DHT22;58984;51.960;5.582;2022-07-29T02:53:20;25.90;42.60
71237;DHT22;58984;51.960;5.582;2022-07-29T02:56:10;25.90;42.70
71237;DHT22;58984;51.960;5.582;2022-07-29T02:58:34;25.90;42.80
71237;DHT22;58984;51.960;5.582;2022-07-29T03:01:03;25.80;42.70
71237;DHT22;58984;51.960;5.582;2022-07-29T03:03:29;25.80;42.70
71237;DHT22;58984;51.960;5.582;2022-07-29T03:05:56;25.80;42.70
71237;DHT22;58984;51.960;5.582;2022-07-29T03:08:22;25.80;42.70
71237;DHT22;58984;51.960;5.582;2022-07-29T03:10:49;25.80;42.80
71237;DHT22;58984;51.960;5.582;2022-07-29T03:13:15;25.80;43.50
71237;DHT22;58984;51.960;5.582;2022-07-29T03:15:44;25.80;42.90
71237;DHT22;58984;51.960;5.582;2022-07-29T03:18:10;25.80;43.00
71237;DHT22;58984;51.960;5.582;2022-07-29T03:20:36;25.80;43.20
71237;DHT22;58984;51.960;5.582;2022-07-29T03:23:02;25.80;43.30
71237;DHT22;58984;51.960;5.582;2022-07-29T03:25:28;25.80;43.30
71237;DHT22;58984;51.960;5.582;2022-07-29T03:27:53;25.70;43.20
71237;DHT22;58984;51.960;5.582;2022-07-29T03:30:19;25.70;43.20
71237;DHT22;58984;51.960;5.582;2022-07-29T03:32:44;25.70;43.20
71237;DHT22;58984;51.960;5.582;2022-07-29T03:35:10;25.70;43.20
71237;DHT22;58984;51.960;5.582;2022-07-29T03:37:35;25.70;43.20
71237;DHT22;58984;51.960;5.582;2022-07-29T03:40:02;25.70;43.20
71237;DHT22;58984;51.960;5.582;2022-07-29T03:42:31;25.70;43.20
71237;DHT22;58984;51.960;5.582;2022-07-29T03:45:05;25.70;43.20
71237;DHT22;58984;51.960;5.582;2022-07-29T03:47:31;25.70;43.20
71237;DHT22;58984;51.960;5.582;2022-07-29T03:49:59;25.60;43.10
71237;DHT22;58984;51.960;5.582;2022-07-29T03:52:25;25.60;43.10
71237;DHT22;58984;51.960;5.582;2022-07-29T03:54:50;25.60;43.20
71237;DHT22;58984;51.960;5.582;2022-07-29T03:57:16;25.60;43.10
71237;DHT22;58984;51.960;5.582;2022-07-29T03:59:43;25.60;43.10
71237;DHT22;58984;51.960;5.582;2022-07-29T04:02:10;25.50;43.10
71237;DHT22;58984;51.960;5.582;2022-07-29T04:04:36;25.60;43.30
71237;DHT22;58984;51.960;5.582;2022-07-29T04:07:02;25.50;43.50
71237;DHT22;58984;51.960;5.582;2022-07-29T04:09:28;25.50;43.40
71237;DHT22;58984;51.960;5.582;2022-07-29T04:11:54;25.50;43.50
71237;DHT22;58984;51.960;5.582;2022-07-29T04:14:19;25.50;43.70
71237;DHT22;58984;51.960;5.582;2022-07-29T04:16:45;25.50;43.60
71237;DHT22;58984;51.960;5.582;2022-07-29T04:19:11;25.50;43.70
71237;DHT22;58984;51.960;5.582;2022-07-29T04:21:37;25.50;43.70
71237;DHT22;58984;51.960;5.582;2022-07-29T04:24:03;25.50;43.90
71237;DHT22;58984;51.960;5.582;2022-07-29T04:26:28;25.50;43.80
71237;DHT22;58984;51.960;5.582;2022-07-29T04:28:54;25.50;43.90
71237;DHT22;58984;51.960;5.582;2022-07-29T04:31:19;25.40;43.80
71237;DHT22;58984;51.960;5.582;2022-07-29T04:33:45;25.40;43.80
71237;DHT22;58984;51.960;5.582;2022-07-29T04:36:10;25.40;43.90
71237;DHT22;58984;51.960;5.582;2022-07-29T04:38:36;25.40;43.90
71237;DHT22;58984;51.960;5.582;2022-07-29T04:41:02;25.40;44.00
71237;DHT22;58984;51.960;5.582;2022-07-29T04:43:27;25.40;43.90
71237;DHT22;58984;51.960;5.582;2022-07-29T04:45:53;25.40;44.00
71237;DHT22;58984;51.960;5.582;2022-07-29T04:48:18;25.40;44.00
71237;DHT22;58984;51.960;5.582;2022-07-29T04:50:44;25.30;43.90
71237;DHT22;58984;51.960;5.582;2022-07-29T04:53:09;25.30;43.90
71237;DHT22;58984;51.960;5.582;2022-07-29T04:55:35;25.30;43.90
71237;DHT22;58984;51.960;5.582;2022-07-29T04:58:01;25.30;43.90
71237;DHT22;58984;51.960;5.582;2022-07-29T05:00:27;25.30;43.90
71237;DHT22;58984;51.960;5.582;2022-07-29T05:02:52;25.30;43.90
71237;DHT22;58984;51.960;5.582;2022-07-29T05:05:18;25.30;43.80
71237;DHT22;58984;51.960;5.582;2022-07-29T05:07:43;25.30;43.90
71237;DHT22;58984;51.960;5.582;2022-07-29T05:10:09;25.20;43.80
71237;DHT22;58984;51.960;5.582;2022-07-29T05:12:34;25.20;43.90
71237;DHT22;58984;51.960;5.582;2022-07-29T05:15:00;25.20;43.90
71237;DHT22;58984;51.960;5.582;2022-07-29T05:17:25;25.20;44.00
71237;DHT22;58984;51.960;5.582;2022-07-29T05:19:51;25.20;44.00
71237;DHT22;58984;51.960;5.582;2022-07-29T05:22:20;25.20;44.00
71237;DHT22;58984;51.960;5.582;2022-07-29T05:24:46;25.20;44.20
71237;DHT22;58984;51.960;5.582;2022-07-29T05:27:11;25.20;44.10
71237;DHT22;58984;51.960;5.582;2022-07-29T05:29:37;25.20;44.10
71237;DHT22;58984;51.960;5.582;2022-07-29T05:32:03;25.20;44.10
71237;DHT22;58984;51.960;5.582;2022-07-29T05:34:28;25.20;44.20
71237;DHT22;58984;51.960;5.582;2022-07-29T05:36:54;25.20;44.20
71237;DHT22;58984;51.960;5.582;2022-07-29T05:39:19;25.20;44.20
71237;DHT22;58984;51.960;5.582;2022-07-29T05:41:45;25.20;44.20
71237;DHT22;58984;51.960;5.582;2022-07-29T05:44:11;25.20;44.30
71237;DHT22;58984;51.960;5.582;2022-07-29T05:46:38;25.10;44.20
71237;DHT22;58984;51.960;5.582;2022-07-29T05:49:04;25.10;44.30
71237;DHT22;58984;51.960;5.582;2022-07-29T05:51:32;25.10;44.40
71237;DHT22;58984;51.960;5.582;2022-07-29T05:53:57;25.10;44.40
71237;DHT22;58984;51.960;5.582;2022-07-29T05:56:23;25.10;44.50
71237;DHT22;58984;51.960;5.582;2022-07-29T05:58:48;25.10;44.50
71237;DHT22;58984;51.960;5.582;2022-07-29T06:01:14;25.10;44.50
71237;DHT22;58984;51.960;5.582;2022-07-29T06:03:39;25.10;44.50
71237;DHT22;58984;51.960;5.582;2022-07-29T06:06:06;25.10;44.50
71237;DHT22;58984;51.960;5.582;2022-07-29T06:08:33;25.10;44.50
71237;DHT22;58984;51.960;5.582;2022-07-29T06:10:59;25.10;44.50
71237;DHT22;58984;51.960;5.582;2022-07-29T06:13:24;25.10;44.50
71237;DHT22;58984;51.960;5.582;2022-07-29T06:15:50;25.00;44.50
71237;DHT22;58984;51.960;5.582;2022-07-29T06:18:15;25.00;44.50
71237;DHT22;58984;51.960;5.582;2022-07-29T06:20:41;25.10;44.60
71237;DHT22;58984;51.960;5.582;2022-07-29T06:23:06;25.00;45.20
71237;DHT22;58984;51.960;5.582;2022-07-29T06:25:32;25.10;44.60
71237;DHT22;58984;51.960;5.582;2022-07-29T06:28:00;25.10;44.60
71237;DHT22;58984;51.960;5.582;2022-07-29T06:30:25;25.00;45.20
71237;DHT22;58984;51.960;5.582;2022-07-29T06:32:51;25.00;44.70
71237;DHT22;58984;51.960;5.582;2022-07-29T06:35:17;25.00;44.70
71237;DHT22;58984;51.960;5.582;2022-07-29T06:37:42;25.00;44.70
71237;DHT22;58984;51.960;5.582;2022-07-29T06:40:08;25.00;44.70
71237;DHT22;58984;51.960;5.582;2022-07-29T06:42:52;25.00;44.80
71237;DHT22;58984;51.960;5.582;2022-07-29T06:45:17;25.00;44.70
71237;DHT22;58984;51.960;5.582;2022-07-29T06:47:43;25.10;44.80
71237;DHT22;58984;51.960;5.582;2022-07-29T06:50:08;25.00;44.70
71237;DHT22;58984;51.960;5.582;2022-07-29T06:52:37;25.00;44.80
71237;DHT22;58984;51.960;5.582;2022-07-29T06:55:03;25.00;44.80
71237;DHT22;58984;51.960;5.582;2022-07-29T06:57:29;25.10;44.80
71237;DHT22;58984;51.960;5.582;2022-07-29T06:59:55;25.00;44.80
71237;DHT22;58984;51.960;5.582;2022-07-29T07:02:21;25.10;44.80
71237;DHT22;58984;51.960;5.582;2022-07-29T07:04:46;25.10;44.80
71237;DHT22;58984;51.960;5.582;2022-07-29T07:07:12;25.10;44.90
71237;DHT22;58984;51.960;5.582;2022-07-29T07:09:37;25.10;44.90
71237;DHT22;58984;51.960;5.582;2022-07-29T07:12:03;25.10;44.80
71237;DHT22;58984;51.960;5.582;2022-07-29T07:14:28;25.10;44.90
71237;DHT22;58984;51.960;5.582;2022-07-29T07:16:54;25.10;45.00
71237;DHT22;58984;51.960;5.582;2022-07-29T07:19:20;25.10;44.90
71237;DHT22;58984;51.960;5.582;2022-07-29T07:21:45;25.10;45.00
71237;DHT22;58984;51.960;5.582;2022-07-29T07:24:11;25.10;45.00
71237;DHT22;58984;51.960;5.582;2022-07-29T07:26:36;25.10;45.00
71237;DHT22;58984;51.960;5.582;2022-07-29T07:29:03;25.10;45.00
71237;DHT22;58984;51.960;5.582;2022-07-29T07:31:28;25.20;45.10
71237;DHT22;58984;51.960;5.582;2022-07-29T07:33:54;25.20;45.10
71237;DHT22;58984;51.960;5.582;2022-07-29T07:36:19;25.20;45.10
71237;DHT22;58984;51.960;5.582;2022-07-29T07:38:45;25.20;45.10
71237;DHT22;58984;51.960;5.582;2022-07-29T07:41:10;25.20;45.10
71237;DHT22;58984;51.960;5.582;2022-07-29T07:43:36;25.20;45.10
71237;DHT22;58984;51.960;5.582;2022-07-29T07:46:01;25.20;45.20
71237;DHT22;58984;51.960;5.582;2022-07-29T07:48:27;25.20;44.60
71237;DHT22;58984;51.960;5.582;2022-07-29T07:50:52;25.20;45.20
71237;DHT22;58984;51.960;5.582;2022-07-29T07:53:18;25.20;45.20
71237;DHT22;58984;51.960;5.582;2022-07-29T07:55:45;25.20;45.20
71237;DHT22;58984;51.960;5.582;2022-07-29T07:58:10;25.20;45.20
71237;DHT22;58984;51.960;5.582;2022-07-29T08:00:36;25.30;45.30
71237;DHT22;58984;51.960;5.582;2022-07-29T08:03:01;25.30;45.30
71237;DHT22;58984;51.960;5.582;2022-07-29T08:05:27;25.30;45.30
71237;DHT22;58984;51.960;5.582;2022-07-29T08:07:53;25.30;45.30
71237;DHT22;58984;51.960;5.582;2022-07-29T08:10:19;25.30;45.30
71237;DHT22;58984;51.960;5.582;2022-07-29T08:13:03;25.40;45.30
71237;DHT22;58984;51.960;5.582;2022-07-29T08:15:29;25.40;45.40
71237;DHT22;58984;51.960;5.582;2022-07-29T08:17:54;25.40;45.30
71237;DHT22;58984;51.960;5.582;2022-07-29T08:20:20;25.40;45.30
71237;DHT22;58984;51.960;5.582;2022-07-29T08:22:45;25.50;45.20
71237;DHT22;58984;51.960;5.582;2022-07-29T08:25:11;25.50;45.20
71237;DHT22;58984;51.960;5.582;2022-07-29T08:27:36;25.50;45.20
71237;DHT22;58984;51.960;5.582;2022-07-29T08:30:02;25.50;45.20
71237;DHT22;58984;51.960;5.582;2022-07-29T08:32:28;25.50;45.20
71237;DHT22;58984;51.960;5.582;2022-07-29T08:34:53;25.50;45.10
71237;DHT22;58984;51.960;5.582;2022-07-29T08:37:19;25.50;45.10
71237;DHT22;58984;51.960;5.582;2022-07-29T08:39:44;25.60;45.10
71237;DHT22;58984;51.960;5.582;2022-07-29T08:42:10;25.60;45.10
71237;DHT22;58984;51.960;5.582;2022-07-29T08:44:36;25.60;45.00
71237;DHT22;58984;51.960;5.582;2022-07-29T08:47:01;25.60;45.00
71237;DHT22;58984;51.960;5.582;2022-07-29T08:49:26;25.70;45.00
71237;DHT22;58984;51.960;5.582;2022-07-29T08:51:52;25.70;45.00
71237;DHT22;58984;51.960;5.582;2022-07-29T08:54:18;25.70;44.90
71237;DHT22;58984;51.960;5.582;2022-07-29T08:56:47;25.80;45.00
71237;DHT22;58984;51.960;5.582;2022-07-29T08:59:13;25.80;45.00
71237;DHT22;58984;51.960;5.582;2022-07-29T09:01:39;25.80;44.90
71237;DHT22;58984;51.960;5.582;2022-07-29T09:04:05;25.80;44.90
71237;DHT22;58984;51.960;5.582;2022-07-29T09:06:36;25.90;44.90
71237;DHT22;58984;51.960;5.582;2022-07-29T09:09:02;25.90;44.80
71237;DHT22;58984;51.960;5.582;2022-07-29T09:11:29;25.90;44.80
71237;DHT22;58984;51.960;5.582;2022-07-29T09:13:54;26.00;44.80
71237;DHT22;58984;51.960;5.582;2022-07-29T09:16:20;26.00;44.80
71237;DHT22;58984;51.960;5.582;2022-07-29T09:18:46;26.10;44.90
71237;DHT22;58984;51.960;5.582;2022-07-29T09:21:12;26.10;44.80
71237;DHT22;58984;51.960;5.582;2022-07-29T09:26:29;26.10;44.80
71237;DHT22;58984;51.960;5.582;2022-07-29T09:28:55;26.10;44.80
71237;DHT22;58984;51.960;5.582;2022-07-29T09:31:26;26.20;44.90
71237;DHT22;58984;51.960;5.582;2022-07-29T09:33:57;26.20;44.80
71237;DHT22;58984;51.960;5.582;2022-07-29T09:36:23;26.30;44.80
71237;DHT22;58984;51.960;5.582;2022-07-29T09:38:58;26.30;44.80
71237;DHT22;58984;51.960;5.582;2022-07-29T09:41:24;26.30;44.80
71237;DHT22;58984;51.960;5.582;2022-07-29T09:43:56;26.30;44.80
71237;DHT22;58984;51.960;5.582;2022-07-29T09:46:22;26.40;45.00
71237;DHT22;58984;51.960;5.582;2022-07-29T09:51:34;26.40;45.00
71237;DHT22;58984;51.960;5.582;2022-07-29T09:53:59;26.50;45.10
71237;DHT22;58984;51.960;5.582;2022-07-29T09:56:41;26.50;45.10
71237;DHT22;58984;51.960;5.582;2022-07-29T09:59:07;26.60;45.20
71237;DHT22;58984;51.960;5.582;2022-07-29T10:01:33;26.60;45.20
71237;DHT22;58984;51.960;5.582;2022-07-29T10:03:59;26.70;45.30
71237;DHT22;58984;51.960;5.582;2022-07-29T10:06:24;26.80;46.00
71237;DHT22;58984;51.960;5.582;2022-07-29T10:08:50;26.90;45.40
71237;DHT22;58984;51.960;5.582;2022-07-29T10:11:16;26.90;45.40
71237;DHT22;58984;51.960;5.582;2022-07-29T10:13:42;27.00;45.40
71237;DHT22;58984;51.960;5.582;2022-07-29T10:16:08;27.00;45.40
71237;DHT22;58984;51.960;5.582;2022-07-29T10:18:34;27.10;45.50
71237;DHT22;58984;51.960;5.582;2022-07-29T10:20:59;27.10;45.50
71237;DHT22;58984;51.960;5.582;2022-07-29T10:23:27;27.20;45.50
71237;DHT22;58984;51.960;5.582;2022-07-29T10:25:53;27.30;45.10
71237;DHT22;58984;51.960;5.582;2022-07-29T10:28:19;27.40;45.60
71237;DHT22;58984;51.960;5.582;2022-07-29T10:30:44;27.40;45.60
71237;DHT22;58984;51.960;5.582;2022-07-29T10:35:59;27.60;45.70
71237;DHT22;58984;51.960;5.582;2022-07-29T10:41:01;27.70;45.70
71237;DHT22;58984;51.960;5.582;2022-07-29T10:43:47;27.80;45.70
71237;DHT22;58984;51.960;5.582;2022-07-29T10:46:14;27.80;45.70
71237;DHT22;58984;51.960;5.582;2022-07-29T10:49:26;27.90;45.80
71237;DHT22;58984;51.960;5.582;2022-07-29T10:51:25;28.00;45.80
71237;DHT22;58984;51.960;5.582;2022-07-29T10:53:51;28.00;45.70
71237;DHT22;58984;51.960;5.582;2022-07-29T10:56:27;28.10;45.80
71237;DHT22;58984;51.960;5.582;2022-07-29T11:01:37;28.30;45.90
71237;DHT22;58984;51.960;5.582;2022-07-29T11:04:02;28.40;45.30
71237;DHT22;58984;51.960;5.582;2022-07-29T11:07:05;28.40;45.90
71237;DHT22;58984;51.960;5.582;2022-07-29T11:09:16;28.50;46.00
71237;DHT22;58984;51.960;5.582;2022-07-29T11:11:42;28.50;45.90
71237;DHT22;58984;51.960;5.582;2022-07-29T11:14:08;28.60;46.00
71237;DHT22;58984;51.960;5.582;2022-07-29T11:19:33;28.80;44.60
71237;DHT22;58984;51.960;5.582;2022-07-29T11:21:59;29.20;44.40
71237;DHT22;58984;51.960;5.582;2022-07-29T11:24:28;29.50;43.90
71237;DHT22;58984;51.960;5.582;2022-07-29T11:27:10;29.70;43.40
71237;DHT22;58984;51.960;5.582;2022-07-29T11:29:40;29.90;42.50
71237;DHT22;58984;51.960;5.582;2022-07-29T11:32:13;30.10;42.00
71237;DHT22;58984;51.960;5.582;2022-07-29T11:34:43;30.20;42.70
71237;DHT22;58984;51.960;5.582;2022-07-29T11:47:19;30.20;43.60
71237;DHT22;58984;51.960;5.582;2022-07-29T11:49:45;30.20;43.80
71237;DHT22;58984;51.960;5.582;2022-07-29T11:52:10;30.20;44.00
71237;DHT22;58984;51.960;5.582;2022-07-29T11:54:36;30.20;44.00
71237;DHT22;58984;51.960;5.582;2022-07-29T11:57:02;30.20;44.10
71237;DHT22;58984;51.960;5.582;2022-07-29T11:59:27;30.30;44.20
71237;DHT22;58984;51.960;5.582;2022-07-29T12:01:57;30.30;44.20
71237;DHT22;58984;51.960;5.582;2022-07-29T12:04:23;30.30;44.20
71237;DHT22;58984;51.960;5.582;2022-07-29T12:06:52;30.30;44.10
71237;DHT22;58984;51.960;5.582;2022-07-29T12:09:18;30.40;44.20
71237;DHT22;58984;51.960;5.582;2022-07-29T12:11:45;30.40;44.20
71237;DHT22;58984;51.960;5.582;2022-07-29T12:14:31;30.40;44.20
71237;DHT22;58984;51.960;5.582;2022-07-29T12:16:57;30.40;44.10
71237;DHT22;58984;51.960;5.582;2022-07-29T12:19:23;30.50;44.20
71237;DHT22;58984;51.960;5.582;2022-07-29T12:21:49;30.50;43.90
71237;DHT22;58984;51.960;5.582;2022-07-29T12:24:14;30.60;44.00
71237;DHT22;58984;51.960;5.582;2022-07-29T12:27:01;30.60;44.00
71237;DHT22;58984;51.960;5.582;2022-07-29T12:29:26;30.70;44.20
71237;DHT22;58984;51.960;5.582;2022-07-29T12:31:53;30.70;44.80
71237;DHT22;58984;51.960;5.582;2022-07-29T12:34:22;30.70;44.00
71237;DHT22;58984;51.960;5.582;2022-07-29T12:36:48;30.70;44.00
71237;DHT22;58984;51.960;5.582;2022-07-29T12:39:17;30.70;44.00
71237;DHT22;58984;51.960;5.582;2022-07-29T12:41:43;30.80;44.00
71237;DHT22;58984;51.960;5.582;2022-07-29T12:44:09;30.80;44.10
71237;DHT22;58984;51.960;5.582;2022-07-29T12:46:34;30.80;44.00
71237;DHT22;58984;51.960;5.582;2022-07-29T12:49:00;30.80;44.00
71237;DHT22;58984;51.960;5.582;2022-07-29T12:51:29;30.90;44.10
71237;DHT22;58984;51.960;5.582;2022-07-29T12:54:14;30.90;44.10
71237;DHT22;58984;51.960;5.582;2022-07-29T12:56:41;30.90;44.20
71237;DHT22;58984;51.960;5.582;2022-07-29T13:01:38;30.90;44.00
71237;DHT22;58984;51.960;5.582;2022-07-29T13:04:04;30.90;44.00
71237;DHT22;58984;51.960;5.582;2022-07-29T13:06:30;30.90;43.90
71237;DHT22;58984;51.960;5.582;2022-07-29T13:11:28;31.00;44.00
71237;DHT22;58984;51.960;5.582;2022-07-29T13:13:54;30.90;44.00
71237;DHT22;58984;51.960;5.582;2022-07-29T13:16:19;30.90;44.00
71237;DHT22;58984;51.960;5.582;2022-07-29T13:18:45;30.90;44.10
71237;DHT22;58984;51.960;5.582;2022-07-29T13:21:11;30.90;44.00
71237;DHT22;58984;51.960;5.582;2022-07-29T13:23:37;30.90;44.10
71237;DHT22;58984;51.960;5.582;2022-07-29T13:26:06;30.90;44.10
71237;DHT22;58984;51.960;5.582;2022-07-29T13:28:32;30.90;43.90
71237;DHT22;58984;51.960;5.582;2022-07-29T13:30:58;30.90;43.90
71237;DHT22;58984;51.960;5.582;2022-07-29T13:33:23;30.90;43.90
71237;DHT22;58984;51.960;5.582;2022-07-29T13:35:49;30.90;43.90
71237;DHT22;58984;51.960;5.582;2022-07-29T13:38:14;30.90;43.60
71237;DHT22;58984;51.960;5.582;2022-07-29T13:40:40;30.90;42.90
71237;DHT22;58984;51.960;5.582;2022-07-29T13:43:08;31.00;42.70
71237;DHT22;58984;51.960;5.582;2022-07-29T13:45:34;31.00;42.30
71237;DHT22;58984;51.960;5.582;2022-07-29T13:47:59;31.00;41.90
71237;DHT22;58984;51.960;5.582;2022-07-29T13:50:24;31.10;41.70
71237;DHT22;58984;51.960;5.582;2022-07-29T13:52:50;31.00;41.50
71237;DHT22;58984;51.960;5.582;2022-07-29T13:55:16;31.10;41.20
71237;DHT22;58984;51.960;5.582;2022-07-29T13:57:41;31.00;41.40
71237;DHT22;58984;51.960;5.582;2022-07-29T14:00:07;31.10;41.50
71237;DHT22;58984;51.960;5.582;2022-07-29T14:02:33;31.10;41.50
71237;DHT22;58984;51.960;5.582;2022-07-29T14:04:58;31.10;41.70
71237;DHT22;58984;51.960;5.582;2022-07-29T14:07:24;31.20;41.60
71237;DHT22;58984;51.960;5.582;2022-07-29T14:09:50;31.20;41.80
71237;DHT22;58984;51.960;5.582;2022-07-29T14:12:15;31.20;41.90
71237;DHT22;58984;51.960;5.582;2022-07-29T14:14:41;31.20;42.00
71237;DHT22;58984;51.960;5.582;2022-07-29T14:17:06;31.20;42.00
71237;DHT22;58984;51.960;5.582;2022-07-29T14:19:32;31.20;41.90
71237;DHT22;58984;51.960;5.582;2022-07-29T14:22:01;31.20;42.00
71237;DHT22;58984;51.960;5.582;2022-07-29T14:24:27;31.20;41.80
71237;DHT22;58984;51.960;5.582;2022-07-29T14:26:53;31.20;41.60
71237;DHT22;58984;51.960;5.582;2022-07-29T14:29:18;31.20;41.50
71237;DHT22;58984;51.960;5.582;2022-07-29T14:31:44;31.20;41.10
71237;DHT22;58984;51.960;5.582;2022-07-29T14:34:09;31.20;41.30
71237;DHT22;58984;51.960;5.582;2022-07-29T14:36:35;31.20;41.40
71237;DHT22;58984;51.960;5.582;2022-07-29T14:39:00;31.30;41.50
71237;DHT22;58984;51.960;5.582;2022-07-29T14:41:26;31.30;41.70
71237;DHT22;58984;51.960;5.582;2022-07-29T14:43:53;31.30;41.70
71237;DHT22;58984;51.960;5.582;2022-07-29T14:46:19;31.30;41.00
71237;DHT22;58984;51.960;5.582;2022-07-29T14:48:45;31.30;41.70
71237;DHT22;58984;51.960;5.582;2022-07-29T14:51:10;31.30;41.60
71237;DHT22;58984;51.960;5.582;2022-07-29T14:53:35;31.30;41.40
71237;DHT22;58984;51.960;5.582;2022-07-29T14:56:01;31.30;41.60
71237;DHT22;58984;51.960;5.582;2022-07-29T14:58:27;31.30;41.60
71237;DHT22;58984;51.960;5.582;2022-07-29T15:00:52;31.30;41.60
71237;DHT22;58984;51.960;5.582;2022-07-29T15:03:20;31.30;41.50
71237;DHT22;58984;51.960;5.582;2022-07-29T15:05:45;31.30;41.50
71237;DHT22;58984;51.960;5.582;2022-07-29T15:08:10;31.30;41.50
71237;DHT22;58984;51.960;5.582;2022-07-29T15:10:36;31.30;41.40
71237;DHT22;58984;51.960;5.582;2022-07-29T15:13:02;31.30;41.40
71237;DHT22;58984;51.960;5.582;2022-07-29T15:15:28;31.30;41.40
71237;DHT22;58984;51.960;5.582;2022-07-29T15:17:53;31.20;41.30
71237;DHT22;58984;51.960;5.582;2022-07-29T15:20:19;31.30;41.40
71237;DHT22;58984;51.960;5.582;2022-07-29T15:22:44;31.30;41.40
71237;DHT22;58984;51.960;5.582;2022-07-29T15:25:10;31.30;41.30
71237;DHT22;58984;51.960;5.582;2022-07-29T15:27:36;31.30;41.30
71237;DHT22;58984;51.960;5.582;2022-07-29T15:30:01;31.30;41.30
71237;DHT22;58984;51.960;5.582;2022-07-29T15:32:27;31.30;41.30
71237;DHT22;58984;51.960;5.582;2022-07-29T15:34:52;31.20;41.30
71237;DHT22;58984;51.960;5.582;2022-07-29T15:37:17;31.20;41.30
71237;DHT22;58984;51.960;5.582;2022-07-29T15:39:43;31.20;41.30
71237;DHT22;58984;51.960;5.582;2022-07-29T15:42:08;31.20;41.30
71237;DHT22;58984;51.960;5.582;2022-07-29T15:44:34;31.20;41.30
71237;DHT22;58984;51.960;5.582;2022-07-29T15:46:59;31.30;41.40
71237;DHT22;58984;51.960;5.582;2022-07-29T15:49:28;31.20;41.40
71237;DHT22;58984;51.960;5.582;2022-07-29T15:51:58;31.20;41.50
71237;DHT22;58984;51.960;5.582;2022-07-29T15:54:23;31.20;41.50
71237;DHT22;58984;51.960;5.582;2022-07-29T15:56:49;31.20;41.40
71237;DHT22;58984;51.960;5.582;2022-07-29T15:59:14;31.20;41.40
71237;DHT22;58984;51.960;5.582;2022-07-29T16:01:40;31.20;41.40
71237;DHT22;58984;51.960;5.582;2022-07-29T16:04:06;31.20;41.40
71237;DHT22;58984;51.960;5.582;2022-07-29T16:06:31;31.20;41.60